createdAt,value
2019-02-02T00:00:02.771Z,978.08
2019-02-02T00:01:02.703Z,978.06
2019-02-02T00:02:02.699Z,978.04
2019-02-02T00:03:02.684Z,978.05
2019-02-02T00:04:02.721Z,978.01
2019-02-02T00:05:02.685Z,978.00
2019-02-02T00:06:02.714Z,977.96
2019-02-02T00:07:02.641Z,977.91
2019-02-02T00:08:02.635Z,977.96
2019-02-02T00:09:02.641Z,978.01
2019-02-02T00:10:02.623Z,978.05
2019-02-02T00:11:02.638Z,978.08
2019-02-02T00:12:02.648Z,978.12
2019-02-02T00:13:02.610Z,978.15
2019-02-02T00:14:02.571Z,978.12
2019-02-02T00:15:02.566Z,978.06
2019-02-02T00:16:02.556Z,978.07
2019-02-02T00:17:02.534Z,978.06
2019-02-02T00:18:02.528Z,978.08
2019-02-02T00:19:02.517Z,978.06
2019-02-02T00:20:02.508Z,978.04
2019-02-02T00:21:02.495Z,978.07
2019-02-02T00:22:02.502Z,978.08
2019-02-02T00:23:02.467Z,978.14
2019-02-02T00:24:02.467Z,978.19
2019-02-02T00:25:02.445Z,978.25
2019-02-02T00:26:02.435Z,978.27
2019-02-02T00:27:02.440Z,978.30
2019-02-02T00:28:02.425Z,978.32
2019-02-02T00:29:02.406Z,978.31
2019-02-02T00:30:02.409Z,978.34
2019-02-02T00:31:02.386Z,978.38
2019-02-02T00:32:02.379Z,978.41
2019-02-02T00:33:02.374Z,978.39
2019-02-02T00:34:02.359Z,978.47
2019-02-02T00:35:02.345Z,978.48
2019-02-02T00:36:02.337Z,978.47
2019-02-02T00:37:02.322Z,978.45
2019-02-02T00:38:02.308Z,978.41
2019-02-02T00:39:02.307Z,978.38
2019-02-02T00:40:02.315Z,978.36
2019-02-02T00:41:02.288Z,978.36
2019-02-02T00:42:02.273Z,978.41
2019-02-02T00:43:02.257Z,978.41
2019-02-02T00:44:02.249Z,978.48
2019-02-02T00:45:02.250Z,978.49
2019-02-02T00:46:02.226Z,978.56
2019-02-02T00:47:02.227Z,978.55
2019-02-02T00:48:02.206Z,978.51
2019-02-02T00:49:02.197Z,978.50
2019-02-02T00:50:02.188Z,978.52
2019-02-02T00:51:02.177Z,978.50
2019-02-02T00:52:02.161Z,978.54
2019-02-02T00:53:02.194Z,978.53
2019-02-02T00:54:02.143Z,978.56
2019-02-02T00:55:02.128Z,978.60
2019-02-02T00:56:02.127Z,978.59
2019-02-02T00:57:02.114Z,978.59
2019-02-02T00:58:02.106Z,978.62
2019-02-02T00:59:02.099Z,978.64
2019-02-02T01:00:02.086Z,978.67
2019-02-02T01:01:02.070Z,978.63
2019-02-02T01:02:02.062Z,978.61
2019-02-02T01:03:02.055Z,978.58
2019-02-02T01:04:02.043Z,978.52
2019-02-02T01:05:02.025Z,978.48
2019-02-02T01:06:04.798Z,978.44
2019-02-02T01:07:02.009Z,978.40
2019-02-02T01:08:02.008Z,978.40
2019-02-02T01:09:02.001Z,978.43
2019-02-02T01:10:01.972Z,978.45
2019-02-02T01:11:01.972Z,978.46
2019-02-02T01:12:01.951Z,978.48
2019-02-02T01:13:01.945Z,978.42
2019-02-02T01:14:01.929Z,978.42
2019-02-02T01:15:01.925Z,978.39
2019-02-02T01:16:01.908Z,978.36
2019-02-02T01:17:01.895Z,978.33
2019-02-02T01:18:01.918Z,978.31
2019-02-02T01:19:01.889Z,978.30
2019-02-02T01:20:01.875Z,978.35
2019-02-02T01:21:01.881Z,978.38
2019-02-02T01:22:01.865Z,978.42
2019-02-02T01:23:01.845Z,978.42
2019-02-02T01:24:01.831Z,978.43
2019-02-02T01:25:01.815Z,978.44
2019-02-02T01:26:01.815Z,978.50
2019-02-02T01:27:01.795Z,978.60
2019-02-02T01:28:05.524Z,978.64
2019-02-02T01:29:01.777Z,978.71
2019-02-02T01:30:01.759Z,978.73
2019-02-02T01:31:01.776Z,978.76
2019-02-02T01:32:01.790Z,978.78
2019-02-02T01:33:09.417Z,978.81
2019-02-02T01:35:06.267Z,978.88
2019-02-02T01:36:06.218Z,978.89
2019-02-02T01:37:06.205Z,978.88
2019-02-02T01:38:06.211Z,978.81
2019-02-02T01:39:06.178Z,978.80
2019-02-02T01:40:06.159Z,978.79
2019-02-02T01:41:06.168Z,978.74
2019-02-02T01:42:06.137Z,978.76
2019-02-02T01:43:06.143Z,978.73
2019-02-02T01:44:06.111Z,978.79
2019-02-02T01:45:06.093Z,978.84
2019-02-02T01:46:06.093Z,978.89
2019-02-02T01:47:06.202Z,978.94
2019-02-02T01:48:06.068Z,978.99
2019-02-02T01:49:06.099Z,979.06
2019-02-02T01:50:06.040Z,979.10
2019-02-02T01:51:06.058Z,979.12
2019-02-02T01:52:06.020Z,979.15
2019-02-02T01:53:06.039Z,979.15
2019-02-02T01:54:06.022Z,979.12
2019-02-02T01:55:06.002Z,979.13
2019-02-02T01:56:05.978Z,979.16
2019-02-02T01:57:05.972Z,979.17
2019-02-02T01:58:15.941Z,979.21
2019-02-02T01:59:05.990Z,979.18
2019-02-02T02:00:06.006Z,979.11
2019-02-02T02:01:05.921Z,979.08
2019-02-02T02:02:05.917Z,979.09
2019-02-02T02:03:05.907Z,979.08
2019-02-02T02:04:05.908Z,979.05
2019-02-02T02:05:05.884Z,979.05
2019-02-02T02:06:05.901Z,979.03
2019-02-02T02:07:05.898Z,978.96
2019-02-02T02:08:05.851Z,978.97
2019-02-02T02:09:05.859Z,978.93
2019-02-02T02:10:05.836Z,978.94
2019-02-02T02:11:05.858Z,978.87
2019-02-02T02:12:05.853Z,978.82
2019-02-02T02:13:05.798Z,978.77
2019-02-02T02:14:05.784Z,978.78
2019-02-02T02:15:05.780Z,978.81
2019-02-02T02:16:05.810Z,978.84
2019-02-02T02:17:05.762Z,978.87
2019-02-02T02:18:05.741Z,978.86
2019-02-02T02:19:05.743Z,978.88
2019-02-02T02:20:05.733Z,978.85
2019-02-02T02:21:05.752Z,978.84
2019-02-02T02:22:05.722Z,978.83
2019-02-02T02:23:05.705Z,978.79
2019-02-02T02:24:05.673Z,978.75
2019-02-02T02:25:05.663Z,978.73
2019-02-02T02:26:05.687Z,978.74
2019-02-02T02:27:05.675Z,978.71
2019-02-02T02:28:05.664Z,978.71
2019-02-02T02:29:05.638Z,978.66
2019-02-02T02:30:05.612Z,978.66
2019-02-02T02:31:05.611Z,978.65
2019-02-02T02:32:05.643Z,978.62
2019-02-02T02:33:05.585Z,978.62
2019-02-02T02:34:05.601Z,978.59
2019-02-02T02:35:05.610Z,978.58
2019-02-02T02:36:05.556Z,978.62
2019-02-02T02:37:05.574Z,978.66
2019-02-02T02:38:05.548Z,978.68
2019-02-02T02:39:05.562Z,978.66
2019-02-02T02:40:05.535Z,978.67
2019-02-02T02:41:05.500Z,978.65
2019-02-02T02:42:05.487Z,978.62
2019-02-02T02:43:05.487Z,978.60
2019-02-02T02:44:05.487Z,978.61
2019-02-02T02:45:05.503Z,978.60
2019-02-02T02:46:05.538Z,978.64
2019-02-02T02:47:05.492Z,978.68
2019-02-02T02:48:05.448Z,978.74
2019-02-02T02:49:05.494Z,978.80
2019-02-02T02:50:05.459Z,978.84
2019-02-02T02:51:05.443Z,978.81
2019-02-02T02:52:05.413Z,978.83
2019-02-02T02:53:05.426Z,978.81
2019-02-02T02:54:05.359Z,978.80
2019-02-02T02:55:05.362Z,978.82
2019-02-02T02:56:05.376Z,978.88
2019-02-02T02:57:05.365Z,978.85
2019-02-02T02:58:05.346Z,978.91
2019-02-02T03:14:27.218Z,978.81
2019-02-02T03:15:27.196Z,978.78
2019-02-02T03:16:27.183Z,978.78
2019-02-02T03:17:27.154Z,978.80
2019-02-02T03:18:27.139Z,978.83
2019-02-02T03:19:27.111Z,978.88
2019-02-02T03:20:27.117Z,978.92
2019-02-02T03:21:27.077Z,978.88
2019-02-02T03:22:27.107Z,978.90
2019-02-02T03:23:27.057Z,978.88
2019-02-02T03:24:27.087Z,978.84
2019-02-02T03:25:27.055Z,978.83
2019-02-02T03:26:27.039Z,978.78
2019-02-02T03:27:27.007Z,978.77
2019-02-02T03:28:27.053Z,978.75
2019-02-02T03:29:26.986Z,978.77
2019-02-02T03:30:26.999Z,978.76
2019-02-02T03:31:26.991Z,978.76
2019-02-02T03:32:26.979Z,978.74
2019-02-02T03:33:26.997Z,978.76
2019-02-02T03:34:26.929Z,978.77
2019-02-02T03:35:26.930Z,978.76
2019-02-02T03:36:26.930Z,978.77
2019-02-02T03:37:26.926Z,978.79
2019-02-02T03:38:26.879Z,978.81
2019-02-02T03:39:26.868Z,978.86
2019-02-02T03:40:26.854Z,978.88
2019-02-02T03:41:26.869Z,978.89
2019-02-02T03:42:26.864Z,978.92
2019-02-02T03:43:26.845Z,979.01
2019-02-02T03:44:26.814Z,979.10
2019-02-02T03:45:26.808Z,979.17
2019-02-02T03:46:26.799Z,979.22
2019-02-02T03:47:26.803Z,979.22
2019-02-02T03:48:26.815Z,979.24
2019-02-02T03:49:26.781Z,979.20
2019-02-02T03:50:26.795Z,979.21
2019-02-02T03:51:26.736Z,979.20
2019-02-02T03:52:29.914Z,979.19
2019-02-02T03:53:26.753Z,979.22
2019-02-02T03:54:26.752Z,979.21
2019-02-02T03:55:26.703Z,979.24
2019-02-02T03:56:26.683Z,979.24
2019-02-02T03:57:26.708Z,979.20
2019-02-02T03:58:26.675Z,979.21
2019-02-02T03:59:26.685Z,979.19
2019-02-02T04:00:26.678Z,979.16
2019-02-02T04:01:29.865Z,979.11
2019-02-02T04:02:26.669Z,979.10
2019-02-02T04:03:26.615Z,979.10
2019-02-02T04:04:26.607Z,979.18
2019-02-02T04:05:26.622Z,979.22
2019-02-02T04:06:26.584Z,979.18
2019-02-02T04:07:26.612Z,979.08
2019-02-02T04:08:26.611Z,979.03
2019-02-02T04:09:26.543Z,979.11
2019-02-02T04:10:26.561Z,979.17
2019-02-02T04:11:26.567Z,979.18
2019-02-02T04:12:26.544Z,979.13
2019-02-02T04:13:26.533Z,979.15
2019-02-02T04:14:26.492Z,979.21
2019-02-02T04:15:26.477Z,979.24
2019-02-02T04:16:26.471Z,979.26
2019-02-02T04:17:26.502Z,979.27
2019-02-02T04:18:26.449Z,979.25
2019-02-02T04:19:35.103Z,979.20
2019-02-02T04:21:30.918Z,979.12
2019-02-02T04:22:30.908Z,979.14
2019-02-02T04:23:30.884Z,979.14
2019-02-02T04:24:30.875Z,979.11
2019-02-02T04:25:30.846Z,979.10
2019-02-02T04:26:30.854Z,979.15
2019-02-02T04:27:30.842Z,979.19
2019-02-02T04:28:30.844Z,979.22
2019-02-02T04:29:30.807Z,979.27
2019-02-02T04:30:30.800Z,979.32
2019-02-02T04:31:30.807Z,979.36
2019-02-02T04:32:30.802Z,979.42
2019-02-02T04:33:30.795Z,979.46
2019-02-02T04:34:30.784Z,979.48
2019-02-02T04:35:30.783Z,979.50
2019-02-02T04:36:30.746Z,979.45
2019-02-02T04:37:30.732Z,979.41
2019-02-02T04:38:30.733Z,979.39
2019-02-02T04:39:30.713Z,979.44
2019-02-02T04:40:30.746Z,979.47
2019-02-02T04:41:30.688Z,979.51
2019-02-02T04:42:30.679Z,979.59
2019-02-02T04:43:30.718Z,979.57
2019-02-02T04:44:30.700Z,979.61
2019-02-02T04:45:30.687Z,979.64
2019-02-02T04:46:30.624Z,979.66
2019-02-02T04:47:30.629Z,979.66
2019-02-02T04:48:32.486Z,979.70
2019-02-02T04:49:30.598Z,979.74
2019-02-02T04:50:30.604Z,979.79
2019-02-02T04:51:30.583Z,979.83
2019-02-02T04:52:30.558Z,979.85
2019-02-02T04:53:30.552Z,979.87
2019-02-02T04:54:30.550Z,979.86
2019-02-02T04:55:30.540Z,979.84
2019-02-02T04:56:30.541Z,979.84
2019-02-02T04:57:30.540Z,979.79
2019-02-02T04:58:30.502Z,979.75
2019-02-02T04:59:30.527Z,979.74
2019-02-02T05:00:30.482Z,979.65
2019-02-02T05:01:30.515Z,979.59
2019-02-02T05:02:30.602Z,979.54
2019-02-02T05:03:30.450Z,979.50
2019-02-02T05:04:30.464Z,979.47
2019-02-02T05:05:30.421Z,979.46
2019-02-02T05:06:30.451Z,979.44
2019-02-02T05:07:30.439Z,979.40
2019-02-02T05:08:30.431Z,979.42
2019-02-02T05:09:30.387Z,979.42
2019-02-02T05:10:30.426Z,979.42
2019-02-02T05:11:30.395Z,979.39
2019-02-02T05:12:30.397Z,979.38
2019-02-02T05:13:30.493Z,979.36
2019-02-02T05:14:30.365Z,979.37
2019-02-02T05:15:30.318Z,979.46
2019-02-02T05:16:30.400Z,979.50
2019-02-02T05:17:30.310Z,979.56
2019-02-02T05:18:30.299Z,979.54
2019-02-02T05:19:30.315Z,979.54
2019-02-02T05:20:30.273Z,979.57
2019-02-02T05:21:30.279Z,979.57
2019-02-02T05:22:30.293Z,979.62
2019-02-02T05:23:30.277Z,979.58
2019-02-02T05:24:30.226Z,979.64
2019-02-02T05:25:30.256Z,979.63
2019-02-02T05:26:30.248Z,979.66
2019-02-02T05:27:30.254Z,979.72
2019-02-02T05:28:30.198Z,979.74
2019-02-02T05:29:40.731Z,979.78
2019-02-02T05:30:30.183Z,979.85
2019-02-02T05:31:30.204Z,979.93
2019-02-02T05:32:30.164Z,979.99
2019-02-02T05:33:30.186Z,980.09
2019-02-02T05:34:30.192Z,980.17
2019-02-02T05:35:30.157Z,980.31
2019-02-02T05:36:30.121Z,980.36
2019-02-02T05:37:30.127Z,980.35
2019-02-02T05:38:30.085Z,980.31
2019-02-02T05:39:30.080Z,980.22
2019-02-02T05:40:30.066Z,980.23
2019-02-02T05:41:30.088Z,980.26
2019-02-02T05:42:30.045Z,980.34
2019-02-02T05:43:30.054Z,980.44
2019-02-02T05:44:30.064Z,980.46
2019-02-02T05:45:30.015Z,980.40
2019-02-02T05:46:30.013Z,980.33
2019-02-02T05:47:30.006Z,980.30
2019-02-02T05:48:30.024Z,980.29
2019-02-02T05:49:30.013Z,980.32
2019-02-02T05:50:29.989Z,980.38
2019-02-02T05:51:29.954Z,980.44
2019-02-02T05:52:29.941Z,980.45
2019-02-02T05:53:29.936Z,980.48
2019-02-02T05:54:29.945Z,980.40
2019-02-02T05:55:29.939Z,980.39
2019-02-02T05:56:29.938Z,980.40
2019-02-02T05:57:29.898Z,980.42
2019-02-02T05:58:29.886Z,980.44
2019-02-02T05:59:29.886Z,980.51
2019-02-02T06:00:29.866Z,980.52
2019-02-02T06:01:30.195Z,980.54
2019-02-02T06:02:29.873Z,980.53
2019-02-02T06:03:29.828Z,980.47
2019-02-02T06:04:29.836Z,980.50
2019-02-02T06:05:29.828Z,980.48
2019-02-02T06:06:29.821Z,980.47
2019-02-02T06:07:29.812Z,980.46
2019-02-02T06:08:29.774Z,980.48
2019-02-02T06:09:29.786Z,980.48
2019-02-02T06:10:29.773Z,980.43
2019-02-02T06:11:29.748Z,980.39
2019-02-02T06:12:29.745Z,980.38
2019-02-02T06:13:29.748Z,980.41
2019-02-02T06:14:29.732Z,980.44
2019-02-02T06:15:29.705Z,980.44
2019-02-02T06:16:29.713Z,980.48
2019-02-02T06:17:29.682Z,980.52
2019-02-02T06:18:29.680Z,980.59
2019-02-02T06:19:29.681Z,980.60
2019-02-02T06:20:29.682Z,980.61
2019-02-02T06:21:29.645Z,980.65
2019-02-02T06:22:29.631Z,980.59
2019-02-02T06:23:29.657Z,980.62
2019-02-02T06:24:29.646Z,980.61
2019-02-02T06:25:29.620Z,980.65
2019-02-02T06:26:29.628Z,980.64
2019-02-02T06:27:29.582Z,980.63
2019-02-02T06:28:29.572Z,980.62
2019-02-02T06:29:29.565Z,980.67
2019-02-02T06:30:29.557Z,980.64
2019-02-02T06:31:29.582Z,980.69
2019-02-02T06:32:29.539Z,980.72
2019-02-02T06:33:29.527Z,980.82
2019-02-02T06:34:29.528Z,980.81
2019-02-02T06:35:29.549Z,980.83
2019-02-02T06:36:29.514Z,980.89
2019-02-02T06:37:29.510Z,980.83
2019-02-02T06:38:29.507Z,980.88
2019-02-02T06:39:29.472Z,980.83
2019-02-02T06:40:29.596Z,980.88
2019-02-02T06:41:29.448Z,980.93
2019-02-02T06:42:29.463Z,980.96
2019-02-02T06:43:30.394Z,981.00
2019-02-02T06:44:29.447Z,980.97
2019-02-02T06:45:29.393Z,981.02
2019-02-02T06:46:29.398Z,980.96
2019-02-02T06:47:29.430Z,981.01
2019-02-02T06:48:29.387Z,981.00
2019-02-02T06:49:29.384Z,981.03
2019-02-02T06:50:29.383Z,981.10
2019-02-02T06:51:29.371Z,981.08
2019-02-02T06:52:29.320Z,981.09
2019-02-02T06:53:29.314Z,981.14
2019-02-02T06:54:33.395Z,981.13
2019-02-02T06:55:29.318Z,981.16
2019-02-02T06:56:29.279Z,981.19
2019-02-02T06:57:29.336Z,981.15
2019-02-02T06:58:29.315Z,981.18
2019-02-02T06:59:29.253Z,981.20
2019-02-02T07:00:29.267Z,981.22
2019-02-02T07:01:29.251Z,981.24
2019-02-02T07:02:29.216Z,981.29
2019-02-02T07:03:29.263Z,981.25
2019-02-02T07:04:29.195Z,981.30
2019-02-02T07:05:29.226Z,981.29
2019-02-02T07:06:29.202Z,981.30
2019-02-02T07:07:29.305Z,981.33
2019-02-02T07:08:29.203Z,981.32
2019-02-02T07:09:29.164Z,981.35
2019-02-02T07:10:29.135Z,981.32
2019-02-02T07:11:29.153Z,981.27
2019-02-02T07:12:29.278Z,981.32
2019-02-02T07:13:29.102Z,981.30
2019-02-02T07:14:29.097Z,981.31
2019-02-02T07:15:29.088Z,981.31
2019-02-02T07:16:29.073Z,981.33
2019-02-02T07:17:29.100Z,981.37
2019-02-02T07:18:29.080Z,981.37
2019-02-02T07:19:29.341Z,981.35
2019-02-02T07:20:29.080Z,981.39
2019-02-02T07:21:29.045Z,981.39
2019-02-02T07:22:29.041Z,981.42
2019-02-02T07:23:29.025Z,981.43
2019-02-02T07:24:29.013Z,981.38
2019-02-02T07:25:29.025Z,981.42
2019-02-02T07:26:29.053Z,981.41
2019-02-02T07:27:28.988Z,981.42
2019-02-02T07:28:28.948Z,981.46
2019-02-02T07:29:28.958Z,981.52
2019-02-02T07:30:29.775Z,981.54
2019-02-02T07:31:28.929Z,981.55
2019-02-02T07:32:28.913Z,981.57
2019-02-02T07:33:28.921Z,981.62
2019-02-02T07:34:28.910Z,981.68
2019-02-02T07:35:28.950Z,981.63
2019-02-02T07:36:28.911Z,981.66
2019-02-02T07:37:28.905Z,981.67
2019-02-02T07:38:28.863Z,981.70
2019-02-02T07:39:28.868Z,981.69
2019-02-02T07:40:28.845Z,981.68
2019-02-02T07:41:28.848Z,981.72
2019-02-02T07:42:28.845Z,981.68
2019-02-02T07:43:28.791Z,981.69
2019-02-02T07:44:28.781Z,981.69
2019-02-02T07:45:28.796Z,981.70
2019-02-02T07:46:28.763Z,981.74
2019-02-02T07:47:28.790Z,981.77
2019-02-02T07:48:28.774Z,981.77
2019-02-02T07:49:28.726Z,981.75
2019-02-02T07:50:28.746Z,981.75
2019-02-02T07:51:28.715Z,981.76
2019-02-02T07:52:28.714Z,981.79
2019-02-02T07:53:28.717Z,981.80
2019-02-02T07:54:28.780Z,981.82
2019-02-02T07:55:28.667Z,981.84
2019-02-02T07:56:28.677Z,981.87
2019-02-02T07:57:28.675Z,981.90
2019-02-02T07:58:28.673Z,981.93
2019-02-02T07:59:28.658Z,982.01
2019-02-02T08:00:39.658Z,982.02
2019-02-02T08:01:28.604Z,982.02
2019-02-02T08:02:28.604Z,982.06
2019-02-02T08:03:28.587Z,982.02
2019-02-02T08:04:28.587Z,982.04
2019-02-02T08:05:28.600Z,982.03
2019-02-02T08:06:28.569Z,982.05
2019-02-02T08:07:28.538Z,982.12
2019-02-02T08:08:28.536Z,982.07
2019-02-02T08:09:28.528Z,982.12
2019-02-02T08:10:28.510Z,982.14
2019-02-02T08:11:28.495Z,982.15
2019-02-02T08:12:28.530Z,982.16
2019-02-02T08:13:28.500Z,982.20
2019-02-02T08:14:28.477Z,982.20
2019-02-02T08:15:28.462Z,982.20
2019-02-02T08:16:28.443Z,982.23
2019-02-02T08:17:28.469Z,982.27
2019-02-02T08:18:28.452Z,982.25
2019-02-02T08:19:28.419Z,982.30
2019-02-02T08:20:28.426Z,982.31
2019-02-02T08:21:28.399Z,982.34
2019-02-02T08:22:28.389Z,982.30
2019-02-02T08:23:28.394Z,982.32
2019-02-02T08:24:28.369Z,982.33
2019-02-02T08:25:28.395Z,982.37
2019-02-02T08:26:28.349Z,982.36
2019-02-02T08:27:28.338Z,982.38
2019-02-02T08:28:28.321Z,982.41
2019-02-02T08:29:28.336Z,982.40
2019-02-02T08:30:28.345Z,982.45
2019-02-02T08:31:28.292Z,982.44
2019-02-02T08:32:28.287Z,982.45
2019-02-02T08:33:28.273Z,982.46
2019-02-02T08:34:28.270Z,982.53
2019-02-02T08:35:28.269Z,982.52
2019-02-02T08:36:28.318Z,982.53
2019-02-02T08:37:28.237Z,982.52
2019-02-02T08:38:28.308Z,982.57
2019-02-02T08:39:29.524Z,982.55
2019-02-02T08:40:28.213Z,982.57
2019-02-02T08:41:28.207Z,982.54
2019-02-02T08:42:28.189Z,982.59
2019-02-02T08:43:28.173Z,982.57
2019-02-02T08:44:29.590Z,982.56
2019-02-02T08:45:28.164Z,982.60
2019-02-02T08:46:28.158Z,982.61
2019-02-02T08:47:28.146Z,982.60
2019-02-02T08:48:28.176Z,982.67
2019-02-02T08:49:28.152Z,982.65
2019-02-02T08:50:28.147Z,982.61
2019-02-02T08:51:28.105Z,982.63
2019-02-02T08:52:28.118Z,982.62
2019-02-02T08:55:02.606Z,982.64
2019-02-02T08:56:03.570Z,982.64
2019-02-02T08:57:03.923Z,982.67
2019-02-02T08:58:04.597Z,982.67
2019-02-02T08:59:03.536Z,982.65
2019-02-02T09:00:03.520Z,982.64
2019-02-02T09:01:04.427Z,982.69
2019-02-02T09:02:02.950Z,982.67
2019-02-02T09:03:02.593Z,982.65
2019-02-02T09:04:02.528Z,982.70
2019-02-02T09:05:02.568Z,982.74
2019-02-02T09:06:02.528Z,982.74
2019-02-02T09:07:02.470Z,982.79
2019-02-02T09:08:02.438Z,982.80
2019-02-02T09:09:02.453Z,982.83
2019-02-02T09:10:02.396Z,982.82
2019-02-02T09:11:02.420Z,982.83
2019-02-02T09:12:02.384Z,982.82
2019-02-02T09:13:02.365Z,982.84
2019-02-02T09:14:02.369Z,982.86
2019-02-02T09:15:02.350Z,982.84
2019-02-02T09:16:02.596Z,982.86
2019-02-02T09:17:02.803Z,982.83
2019-02-02T09:18:02.548Z,982.88
2019-02-02T09:19:02.692Z,982.88
2019-02-02T09:20:02.678Z,982.89
2019-02-02T09:21:02.655Z,982.89
2019-02-02T09:22:02.858Z,982.96
2019-02-02T09:23:06.435Z,982.96
2019-02-02T09:24:02.563Z,982.95
2019-02-02T09:26:02.393Z,982.97
2019-02-02T09:27:02.380Z,983.07
2019-02-02T09:28:02.861Z,983.05
2019-02-02T09:29:02.267Z,983.05
2019-02-02T09:30:02.266Z,983.05
2019-02-02T09:31:02.208Z,983.06
2019-02-02T09:32:02.204Z,983.10
2019-02-02T09:33:02.263Z,983.12
2019-02-02T09:34:02.183Z,983.12
2019-02-02T09:35:02.199Z,983.11
2019-02-02T09:36:02.140Z,983.17
2019-02-02T09:37:02.179Z,983.18
2019-02-02T09:38:02.173Z,983.17
2019-02-02T09:39:02.157Z,983.22
2019-02-02T09:40:02.141Z,983.20
2019-02-02T09:41:02.150Z,983.20
2019-02-02T09:42:02.102Z,983.17
2019-02-02T09:43:02.074Z,983.18
2019-02-02T09:44:02.097Z,983.22
2019-02-02T09:45:02.064Z,983.20
2019-02-02T09:46:04.682Z,983.20
2019-02-02T09:47:02.040Z,983.24
2019-02-02T09:48:02.029Z,983.27
2019-02-02T09:49:02.039Z,983.24
2019-02-02T09:50:02.012Z,983.26
2019-02-02T09:51:02.015Z,983.24
2019-02-02T09:52:02.034Z,983.27
2019-02-02T09:53:01.999Z,983.25
2019-02-02T09:54:02.135Z,983.25
2019-02-02T09:55:01.959Z,983.32
2019-02-02T09:56:01.996Z,983.29
2019-02-02T09:57:01.954Z,983.33
2019-02-02T09:58:02.005Z,983.35
2019-02-02T09:59:01.925Z,983.39
2019-02-02T10:00:01.943Z,983.41
2019-02-02T10:01:01.934Z,983.44
2019-02-02T10:02:01.913Z,983.44
2019-02-02T10:03:01.907Z,983.47
2019-02-02T10:04:01.913Z,983.51
2019-02-02T10:05:01.887Z,983.52
2019-02-02T10:06:01.926Z,983.55
2019-02-02T10:07:01.873Z,983.59
2019-02-02T10:08:01.862Z,983.62
2019-02-02T10:09:01.918Z,983.62
2019-02-02T10:10:02.043Z,983.64
2019-02-02T10:11:01.842Z,983.70
2019-02-02T10:12:01.824Z,983.70
2019-02-02T10:13:02.013Z,983.67
2019-02-02T10:14:01.837Z,983.71
2019-02-02T10:15:01.796Z,983.74
2019-02-02T10:16:01.816Z,983.72
2019-02-02T10:17:01.804Z,983.74
2019-02-02T10:18:01.757Z,983.74
2019-02-02T10:19:01.730Z,983.76
2019-02-02T10:20:01.823Z,983.76
2019-02-02T10:21:04.212Z,983.74
2019-02-02T10:22:01.750Z,983.76
2019-02-02T10:23:01.823Z,983.76
2019-02-02T10:24:01.714Z,983.81
2019-02-02T10:25:01.680Z,983.75
2019-02-02T10:26:01.680Z,983.80
2019-02-02T10:27:01.682Z,983.81
2019-02-02T10:28:01.675Z,983.79
2019-02-02T10:29:01.644Z,983.84
2019-02-02T10:30:01.662Z,983.77
2019-02-02T10:31:01.669Z,983.78
2019-02-02T10:32:01.650Z,983.81
2019-02-02T10:33:01.622Z,983.81
2019-02-02T10:34:01.654Z,983.78
2019-02-02T10:35:01.628Z,983.84
2019-02-02T10:36:01.603Z,983.84
2019-02-02T10:37:01.603Z,983.87
2019-02-02T10:38:01.590Z,983.87
2019-02-02T10:39:03.031Z,983.87
2019-02-02T10:40:01.582Z,983.86
2019-02-02T10:41:01.609Z,983.86
2019-02-02T10:42:01.534Z,983.88
2019-02-02T10:43:01.519Z,983.82
2019-02-02T10:44:01.544Z,983.86
2019-02-02T10:45:01.524Z,983.88
2019-02-02T10:46:01.507Z,983.92
2019-02-02T10:47:01.472Z,983.90
2019-02-02T10:48:01.483Z,983.87
2019-02-02T10:49:01.465Z,983.87
2019-02-02T10:50:01.476Z,983.89
2019-02-02T10:51:01.433Z,983.91
2019-02-02T10:52:01.455Z,983.93
2019-02-02T10:53:10.485Z,983.94
2019-02-02T10:55:07.058Z,983.96
2019-02-02T10:56:06.942Z,983.99
2019-02-02T10:57:07.068Z,983.97
2019-02-02T10:58:07.106Z,983.98
2019-02-02T10:59:06.921Z,983.98
2019-02-02T11:00:06.881Z,984.01
2019-02-02T11:01:06.840Z,984.04
2019-02-02T11:02:08.162Z,984.03
2019-02-02T11:03:06.838Z,984.02
2019-02-02T11:04:06.954Z,984.04
2019-02-02T11:05:06.836Z,984.08
2019-02-02T11:06:06.812Z,984.06
2019-02-02T11:07:06.815Z,984.09
2019-02-02T11:08:15.872Z,984.08
2019-02-02T11:10:11.333Z,984.05
2019-02-02T11:11:11.238Z,984.03
2019-02-02T11:12:11.271Z,984.02
2019-02-02T11:13:11.244Z,984.03
2019-02-02T11:14:11.499Z,984.10
2019-02-02T11:15:11.223Z,984.05
2019-02-02T11:16:11.337Z,984.05
2019-02-02T11:17:11.213Z,984.10
2019-02-02T11:18:11.202Z,984.09
2019-02-02T11:19:11.279Z,984.11
2019-02-02T11:20:11.197Z,984.12
2019-02-02T11:21:11.144Z,984.13
2019-02-02T11:22:11.173Z,984.13
2019-02-02T11:23:11.183Z,984.19
2019-02-02T11:24:11.173Z,984.16
2019-02-02T11:25:11.177Z,984.18
2019-02-02T11:26:11.143Z,984.17
2019-02-02T11:27:12.688Z,984.17
2019-02-02T11:28:11.133Z,984.16
2019-02-02T11:29:11.192Z,984.15
2019-02-02T11:30:11.063Z,984.19
2019-02-02T11:31:11.082Z,984.16
2019-02-02T11:32:11.100Z,984.15
2019-02-02T11:33:11.072Z,984.11
2019-02-02T11:34:11.029Z,984.12
2019-02-02T11:35:11.008Z,984.13
2019-02-02T11:36:11.040Z,984.13
2019-02-02T11:37:10.995Z,984.14
2019-02-02T11:38:11.022Z,984.16
2019-02-02T11:39:10.985Z,984.19
2019-02-02T11:40:11.000Z,984.20
2019-02-02T11:41:10.990Z,984.23
2019-02-02T11:42:10.963Z,984.22
2019-02-02T11:43:10.986Z,984.24
2019-02-02T11:44:10.960Z,984.32
2019-02-02T11:45:10.931Z,984.35
2019-02-02T11:46:10.920Z,984.41
2019-02-02T11:47:10.903Z,984.36
2019-02-02T11:48:10.907Z,984.36
2019-02-02T11:49:11.035Z,984.38
2019-02-02T11:50:10.904Z,984.38
2019-02-02T11:51:10.893Z,984.44
2019-02-02T11:52:10.882Z,984.46
2019-02-02T11:53:10.878Z,984.46
2019-02-02T11:54:10.856Z,984.49
2019-02-02T11:55:10.843Z,984.51
2019-02-02T11:56:10.844Z,984.49
2019-02-02T11:57:10.822Z,984.49
2019-02-02T11:58:10.819Z,984.51
2019-02-02T11:59:10.840Z,984.51
2019-02-02T12:00:10.795Z,984.48
2019-02-02T12:01:10.815Z,984.51
2019-02-02T12:02:14.442Z,984.45
2019-02-02T12:03:10.787Z,984.46
2019-02-02T12:04:10.768Z,984.51
2019-02-02T12:05:10.890Z,984.49
2019-02-02T12:06:10.758Z,984.48
2019-02-02T12:07:10.757Z,984.46
2019-02-02T12:08:10.724Z,984.50
2019-02-02T12:09:10.766Z,984.50
2019-02-02T12:10:10.749Z,984.47
2019-02-02T12:11:10.715Z,984.49
2019-02-02T12:12:10.696Z,984.54
2019-02-02T12:13:10.743Z,984.54
2019-02-02T12:14:10.669Z,984.54
2019-02-02T12:15:10.662Z,984.53
2019-02-02T12:16:10.658Z,984.55
2019-02-02T12:17:10.681Z,984.56
2019-02-02T12:18:11.986Z,984.59
2019-02-02T12:19:10.645Z,984.58
2019-02-02T12:20:11.172Z,984.59
2019-02-02T12:21:10.644Z,984.60
2019-02-02T12:22:10.624Z,984.62
2019-02-02T12:23:10.603Z,984.61
2019-02-02T12:24:15.875Z,984.59
2019-02-02T12:25:10.623Z,984.58
2019-02-02T12:26:10.578Z,984.54
2019-02-02T12:27:10.635Z,984.55
2019-02-02T12:28:10.598Z,984.57
2019-02-02T12:29:10.570Z,984.59
2019-02-02T12:30:10.553Z,984.56
2019-02-02T12:31:11.045Z,984.62
2019-02-02T12:32:10.570Z,984.58
2019-02-02T12:33:10.523Z,984.60
2019-02-02T12:34:10.514Z,984.56
2019-02-02T12:35:10.513Z,984.62
2019-02-02T12:47:59.621Z,984.67
2019-02-02T12:48:59.227Z,984.67
2019-02-02T12:49:59.067Z,984.66
2019-02-02T12:50:59.039Z,984.67
2019-02-02T12:51:59.034Z,984.68
2019-02-02T12:52:59.028Z,984.71
2019-02-02T12:53:59.048Z,984.70
2019-02-02T12:54:59.049Z,984.76
2019-02-02T12:55:59.048Z,984.72
2019-02-02T12:56:59.031Z,984.75
2019-02-02T12:57:58.981Z,984.74
2019-02-02T12:58:58.987Z,984.77
2019-02-02T12:59:58.987Z,984.78
2019-02-02T13:00:58.950Z,984.80
2019-02-02T13:01:58.943Z,984.79